sensor_id;sensor_type;location;lat;lon;timestamp;P1;durP1;ratioP1;P2;durP2;ratioP2
49556;SDS011;35462;45.048;7.666;2023-11-19T00:10:37;10.80;;;5.80;;
49556;SDS011;35462;45.048;7.666;2023-11-19T00:25:56;9.00;;;6.40;;
49556;SDS011;35462;45.048;7.666;2023-11-19T00:41:15;10.57;;;6.30;;
49556;SDS011;35462;45.048;7.666;2023-11-19T00:56:37;8.20;;;5.22;;
49556;SDS011;35462;45.048;7.666;2023-11-19T01:11:56;11.40;;;6.63;;
49556;SDS011;35462;45.048;7.666;2023-11-19T01:27:16;13.93;;;9.70;;
49556;SDS011;35462;45.048;7.666;2023-11-19T01:42:38;14.95;;;9.68;;
49556;SDS011;35462;45.048;7.666;2023-11-19T01:57:59;14.63;;;9.05;;
49556;SDS011;35462;45.048;7.666;2023-11-19T02:13:20;18.50;;;10.90;;
49556;SDS011;35462;45.048;7.666;2023-11-19T02:28:40;19.77;;;11.47;;
49556;SDS011;35462;45.048;7.666;2023-11-19T02:44:01;15.13;;;10.05;;
49556;SDS011;35462;45.048;7.666;2023-11-19T02:59:20;17.80;;;10.90;;
49556;SDS011;35462;45.048;7.666;2023-11-19T03:14:46;18.98;;;11.25;;
49556;SDS011;35462;45.048;7.666;2023-11-19T03:30:07;14.98;;;9.40;;
49556;SDS011;35462;45.048;7.666;2023-11-19T03:45:28;14.57;;;10.48;;
49556;SDS011;35462;45.048;7.666;2023-11-19T04:00:48;18.40;;;9.50;;
49556;SDS011;35462;45.048;7.666;2023-11-19T04:16:07;15.87;;;10.10;;
49556;SDS011;35462;45.048;7.666;2023-11-19T04:31:30;13.77;;;9.40;;
49556;SDS011;35462;45.048;7.666;2023-11-19T04:46:51;14.27;;;9.50;;
49556;SDS011;35462;45.048;7.666;2023-11-19T05:02:11;16.60;;;10.43;;
49556;SDS011;35462;45.048;7.666;2023-11-19T05:17:30;13.55;;;8.95;;
49556;SDS011;35462;45.048;7.666;2023-11-19T05:32:49;18.02;;;9.98;;
49556;SDS011;35462;45.048;7.666;2023-11-19T05:48:08;12.95;;;9.70;;
49556;SDS011;35462;45.048;7.666;2023-11-19T06:03:28;13.40;;;8.97;;
49556;SDS011;35462;45.048;7.666;2023-11-19T06:18:47;14.63;;;9.30;;
49556;SDS011;35462;45.048;7.666;2023-11-19T06:34:07;21.13;;;10.53;;
49556;SDS011;35462;45.048;7.666;2023-11-19T06:49:26;11.73;;;7.57;;
49556;SDS011;35462;45.048;7.666;2023-11-19T07:04:46;13.00;;;8.57;;
49556;SDS011;35462;45.048;7.666;2023-11-19T07:20:05;20.67;;;10.97;;
49556;SDS011;35462;45.048;7.666;2023-11-19T07:35:25;13.60;;;10.30;;
49556;SDS011;35462;45.048;7.666;2023-11-19T07:50:45;17.53;;;9.73;;
49556;SDS011;35462;45.048;7.666;2023-11-19T08:06:04;11.43;;;8.30;;
49556;SDS011;35462;45.048;7.666;2023-11-19T08:21:24;14.07;;;9.10;;
49556;SDS011;35462;45.048;7.666;2023-11-19T08:36:43;12.23;;;8.40;;
49556;SDS011;35462;45.048;7.666;2023-11-19T08:52:03;12.90;;;9.77;;
49556;SDS011;35462;45.048;7.666;2023-11-19T09:07:22;12.97;;;9.37;;
49556;SDS011;35462;45.048;7.666;2023-11-19T09:22:42;16.43;;;10.47;;
49556;SDS011;35462;45.048;7.666;2023-11-19T09:38:01;13.80;;;8.53;;
49556;SDS011;35462;45.048;7.666;2023-11-19T09:53:21;12.03;;;8.27;;
49556;SDS011;35462;45.048;7.666;2023-11-19T10:08:41;9.93;;;7.30;;
49556;SDS011;35462;45.048;7.666;2023-11-19T10:24:00;9.80;;;5.93;;
49556;SDS011;35462;45.048;7.666;2023-11-19T10:39:20;9.73;;;6.10;;
49556;SDS011;35462;45.048;7.666;2023-11-19T11:10:03;7.00;;;5.25;;
49556;SDS011;35462;45.048;7.666;2023-11-19T11:25:33;10.70;;;5.57;;
49556;SDS011;35462;45.048;7.666;2023-11-19T11:41:22;11.17;;;7.23;;
49556;SDS011;35462;45.048;7.666;2023-11-19T11:56:42;6.50;;;5.50;;
49556;SDS011;35462;45.048;7.666;2023-11-19T12:12:21;8.85;;;6.05;;
49556;SDS011;35462;45.048;7.666;2023-11-19T12:27:42;11.05;;;7.63;;
49556;SDS011;35462;45.048;7.666;2023-11-19T12:43:03;10.20;;;6.22;;
49556;SDS011;35462;45.048;7.666;2023-11-19T12:58:29;9.57;;;6.57;;
49556;SDS011;35462;45.048;7.666;2023-11-19T13:13:55;10.15;;;5.65;;
49556;SDS011;35462;45.048;7.666;2023-11-19T13:29:15;9.70;;;6.53;;
49556;SDS011;35462;45.048;7.666;2023-11-19T13:44:34;10.53;;;5.87;;
49556;SDS011;35462;45.048;7.666;2023-11-19T13:59:54;8.70;;;5.63;;
49556;SDS011;35462;45.048;7.666;2023-11-19T14:30:33;9.52;;;6.22;;
49556;SDS011;35462;45.048;7.666;2023-11-19T14:45:53;14.35;;;6.88;;
49556;SDS011;35462;45.048;7.666;2023-11-19T15:01:13;6.77;;;3.83;;
49556;SDS011;35462;45.048;7.666;2023-11-19T15:16:33;12.88;;;6.20;;
49556;SDS011;35462;45.048;7.666;2023-11-19T15:31:54;8.90;;;5.05;;
49556;SDS011;35462;45.048;7.666;2023-11-19T15:47:13;9.80;;;6.37;;
49556;SDS011;35462;45.048;7.666;2023-11-19T16:02:33;9.88;;;5.72;;
49556;SDS011;35462;45.048;7.666;2023-11-19T16:17:53;15.27;;;9.73;;
49556;SDS011;35462;45.048;7.666;2023-11-19T16:33:13;14.05;;;9.48;;
49556;SDS011;35462;45.048;7.666;2023-11-19T16:48:33;14.67;;;10.60;;
49556;SDS011;35462;45.048;7.666;2023-11-19T17:03:52;16.43;;;10.53;;
49556;SDS011;35462;45.048;7.666;2023-11-19T17:19:12;13.63;;;10.00;;
49556;SDS011;35462;45.048;7.666;2023-11-19T17:34:31;18.37;;;11.77;;
49556;SDS011;35462;45.048;7.666;2023-11-19T17:49:50;19.43;;;11.10;;
49556;SDS011;35462;45.048;7.666;2023-11-19T18:05:13;17.47;;;11.93;;
49556;SDS011;35462;45.048;7.666;2023-11-19T18:20:33;18.00;;;12.18;;
49556;SDS011;35462;45.048;7.666;2023-11-19T18:35:54;18.73;;;12.30;;
49556;SDS011;35462;45.048;7.666;2023-11-19T18:51:13;15.10;;;10.57;;
49556;SDS011;35462;45.048;7.666;2023-11-19T19:06:33;17.70;;;10.80;;
49556;SDS011;35462;45.048;7.666;2023-11-19T19:21:52;20.63;;;13.80;;
49556;SDS011;35462;45.048;7.666;2023-11-19T19:37:12;18.53;;;12.67;;
49556;SDS011;35462;45.048;7.666;2023-11-19T19:52:31;23.80;;;14.03;;
49556;SDS011;35462;45.048;7.666;2023-11-19T20:07:51;24.70;;;13.60;;
49556;SDS011;35462;45.048;7.666;2023-11-19T20:23:12;20.20;;;12.82;;
49556;SDS011;35462;45.048;7.666;2023-11-19T20:38:32;17.13;;;12.73;;
49556;SDS011;35462;45.048;7.666;2023-11-19T20:53:52;23.73;;;14.03;;
49556;SDS011;35462;45.048;7.666;2023-11-19T21:24:30;19.85;;;13.20;;
49556;SDS011;35462;45.048;7.666;2023-11-19T21:39:49;18.80;;;14.33;;
49556;SDS011;35462;45.048;7.666;2023-11-19T21:55:11;23.30;;;15.80;;
49556;SDS011;35462;45.048;7.666;2023-11-19T22:10:30;26.33;;;15.23;;
49556;SDS011;35462;45.048;7.666;2023-11-19T22:25:50;17.67;;;12.50;;
49556;SDS011;35462;45.048;7.666;2023-11-19T22:41:09;21.47;;;11.43;;
49556;SDS011;35462;45.048;7.666;2023-11-19T22:56:29;18.50;;;12.13;;
49556;SDS011;35462;45.048;7.666;2023-11-19T23:11:48;15.15;;;11.52;;
49556;SDS011;35462;45.048;7.666;2023-11-19T23:27:08;19.37;;;11.13;;
49556;SDS011;35462;45.048;7.666;2023-11-19T23:42:33;18.67;;;12.30;;
49556;SDS011;35462;45.048;7.666;2023-11-19T23:57:52;18.67;;;12.52;;
